Santa Teresa, NM

4:38 PM MDT on May 27, 2015 (GMT -0600)
Santa Teresa | | Change Station
CLOSE
Current Station
Personal Weather Station
Location: Santa Teresa, NM
Elevation: 3811 ft
Nearby Weather Stations

Elev 3811 ft 31.87 °N, 106.65 °W | Updated 3 seconds ago

Mostly Cloudy
Mostly Cloudy
92.1 °F
Feels Like 88 °F
N
9.0
Wind Variable Wind from WSW
Gusts 12.0 mph

Today
High -- | Low -- °F
--% Chance of Precip.
Yesterday
High -- | Low -- °F
Precip. -- in
6:03 AM 8:04 PM
Waxing Gibbous, 70% visible
Pressure 29.78 in
Visibility 10.0 miles
Clouds Mostly Cloudy 26000 ft
Mostly Cloudy 35000 ft
Heat Index 88 °F
Dew Point 16 °F
Humidity 6%
Rainfall 0.00 in
Snow Depth Not available.
UV 4 out of 12
Pollen 5.60 out of 12
Air Quality Not available.
Flu Activity Local Activity
METAR KBIF 272158Z AUTO 23009KT 10SM BKN260 BKN350 32/M08 A2996 RMK AO2 SLP083 T03191085 $

More Conditions Fewer Conditions

Pressure 29.78 in
Visibility 10.0 miles
Clouds Mostly Cloudy 26000 ft
Mostly Cloudy 35000 ft
Heat Index 88 °F
Dew Point 16 °F
Humidity 6%
Rainfall 0.00 in
Snow Depth Not available.
UV 4 out of 12
Pollen 5.60 out of 12
Air Quality Not available.
Flu Activity Local Activity
METAR KBIF 272158Z AUTO 23009KT 10SM BKN260 BKN350 32/M08 A2996 RMK AO2 SLP083 T03191085 $

More Conditions Fewer Conditions

10-Day Weather Forecast

Almanac

Astronomy

May. 27, 2015 Rise Set
Actual Time
Civil Twilight
Nautical Twilight
Astronomical Twilight
Moon
Length of Visible Light
Length of Day
Tomorrow will be .
, % of the Moon is Illuminated

Today's Extremes

State Highs State Lows

Community

WunderPhotos

Upload Photos

1,824,813 photos uploaded!

WunderBlogs® & News

Nearby

Air Quality

  Air Quality AQ Index Pollutant
Not available.

Snow Depth

Station Depth Elevation

Earthquake Activity

City Distance Mag. Time & Date
Minimum magnitude displayed is 2.5.

Coastal Water Temperatures

Place Temperature

Stations

Nearby Weather Stations

Station Location Temp. Windchill Dew Point Humidity Wind Precip. Elev Updated Type